createdAt,value
2023-12-11T00:00:43.774Z,64.60
2023-12-11T00:03:12.150Z,64.40
2023-12-11T00:05:41.091Z,64.14
2023-12-11T00:08:10.886Z,64.61
2023-12-11T00:10:39.138Z,64.43
2023-12-11T00:13:07.384Z,64.87
2023-12-11T00:15:37.918Z,65.14
2023-12-11T00:18:07.127Z,64.82
2023-12-11T00:20:35.976Z,65.44
2023-12-11T00:23:04.259Z,65.61
2023-12-11T00:25:34.421Z,65.61
2023-12-11T00:28:02.793Z,65.92
2023-12-11T00:30:31.194Z,66.25
2023-12-11T00:32:59.606Z,65.86
2023-12-11T00:35:27.903Z,66.34
2023-12-11T00:37:56.126Z,65.99
2023-12-11T00:40:24.300Z,65.91
2023-12-11T00:42:54.105Z,66.72
2023-12-11T00:45:22.567Z,65.63
2023-12-11T00:47:50.942Z,65.41
2023-12-11T00:50:19.396Z,65.80
2023-12-11T00:52:47.590Z,65.78
2023-12-11T00:55:15.880Z,65.14
2023-12-11T00:57:44.379Z,65.23
2023-12-11T01:00:15.482Z,65.67
2023-12-11T01:02:43.956Z,66.37
2023-12-11T01:05:12.220Z,65.90
2023-12-11T01:07:40.519Z,66.62
2023-12-11T01:10:11.066Z,65.71
2023-12-11T01:12:39.331Z,66.15
2023-12-11T01:15:09.045Z,65.33
2023-12-11T01:17:40.889Z,65.27
2023-12-11T01:20:10.926Z,65.76
2023-12-11T01:22:39.323Z,65.76
2023-12-11T01:25:10.314Z,65.88
2023-12-11T01:27:38.796Z,66.08
2023-12-11T01:30:09.170Z,65.30
2023-12-11T01:32:38.853Z,66.28
2023-12-11T01:35:07.848Z,66.08
2023-12-11T01:37:36.044Z,65.44
2023-12-11T01:40:06.454Z,65.43
2023-12-11T01:42:35.177Z,64.66
2023-12-11T01:45:03.483Z,65.41
2023-12-11T01:47:33.218Z,64.95
2023-12-11T01:50:03.528Z,65.15
2023-12-11T01:52:31.931Z,65.86
2023-12-11T01:55:00.347Z,65.67
2023-12-11T01:57:29.219Z,65.90
2023-12-11T01:59:58.572Z,65.22
2023-12-11T02:02:27.194Z,65.80
2023-12-11T02:04:55.948Z,65.59
2023-12-11T02:07:25.825Z,66.10
2023-12-11T02:09:54.062Z,66.03
2023-12-11T02:12:22.402Z,65.91
2023-12-11T02:14:50.573Z,65.42
2023-12-11T02:17:18.854Z,64.92
2023-12-11T02:19:47.168Z,66.40
2023-12-11T02:22:16.421Z,66.17
2023-12-11T02:24:51.261Z,65.11
2023-12-11T02:27:21.885Z,65.90
2023-12-11T02:29:51.611Z,65.46
2023-12-11T02:32:19.847Z,65.79
2023-12-11T02:34:49.243Z,65.14
2023-12-11T02:37:17.847Z,65.44
2023-12-11T02:39:48.092Z,66.40
2023-12-11T02:42:16.428Z,66.07
2023-12-11T02:44:46.285Z,65.55
2023-12-11T02:47:14.604Z,66.25
2023-12-11T02:49:42.943Z,65.90
2023-12-11T02:52:11.259Z,66.00
2023-12-11T02:54:39.474Z,65.44
2023-12-11T02:57:07.696Z,65.33
2023-12-11T02:59:35.894Z,65.86
2023-12-11T03:02:06.016Z,66.43
2023-12-11T03:04:34.407Z,66.04
2023-12-11T03:07:02.730Z,65.77
2023-12-11T03:09:30.983Z,66.11
2023-12-11T03:11:59.176Z,66.03
2023-12-11T03:14:27.333Z,65.61
2023-12-11T03:16:55.586Z,65.82
2023-12-11T03:19:26.197Z,65.66
2023-12-11T03:21:57.119Z,65.48
2023-12-11T03:24:26.179Z,65.78
2023-12-11T03:26:54.372Z,65.85
2023-12-11T03:29:22.700Z,65.61
2023-12-11T03:31:50.913Z,66.04
2023-12-11T03:34:19.288Z,66.53
2023-12-11T03:36:49.155Z,65.82
2023-12-11T03:39:17.630Z,65.62
2023-12-11T03:41:46.931Z,65.99
2023-12-11T03:44:15.100Z,65.52
2023-12-11T03:46:43.220Z,65.34
2023-12-11T03:49:11.687Z,65.71
2023-12-11T03:51:40.012Z,65.20
2023-12-11T03:54:09.832Z,66.16
2023-12-11T03:56:38.220Z,65.60
2023-12-11T03:59:06.613Z,65.68
2023-12-11T04:01:34.944Z,65.85
2023-12-11T04:04:04.091Z,65.56
2023-12-11T04:06:32.536Z,65.52
2023-12-11T04:09:01.052Z,66.29
2023-12-11T04:11:30.775Z,66.54
2023-12-11T04:13:59.048Z,66.03
2023-12-11T04:16:28.094Z,66.72
2023-12-11T04:18:59.522Z,66.64
2023-12-11T04:21:29.201Z,67.53
2023-12-11T04:23:57.453Z,67.61
2023-12-11T04:26:25.744Z,66.39
2023-12-11T04:28:55.377Z,66.66
2023-12-11T04:31:24.756Z,67.20
2023-12-11T04:33:53.186Z,66.94
2023-12-11T04:36:21.490Z,68.02
2023-12-11T04:38:49.722Z,67.15
2023-12-11T04:41:18.129Z,67.29
2023-12-11T04:43:46.361Z,66.20
2023-12-11T04:46:15.992Z,66.09
2023-12-11T04:48:44.363Z,66.13
2023-12-11T04:51:12.808Z,66.05
2023-12-11T04:53:40.994Z,66.88
2023-12-11T04:56:10.476Z,66.78
2023-12-11T04:58:38.715Z,66.69
2023-12-11T05:01:07.203Z,67.02
2023-12-11T05:03:37.057Z,66.16
2023-12-11T05:06:06.267Z,66.70
2023-12-11T05:08:34.461Z,66.98
2023-12-11T05:11:02.656Z,66.80
2023-12-11T05:13:30.850Z,67.03
2023-12-11T05:15:59.465Z,66.30
2023-12-11T05:18:27.743Z,67.21
2023-12-11T05:20:57.512Z,67.87
2023-12-11T05:23:25.850Z,66.45
2023-12-11T05:25:55.608Z,67.50
2023-12-11T05:28:23.812Z,66.64
2023-12-11T05:30:52.277Z,67.00
2023-12-11T05:33:20.666Z,67.71
2023-12-11T05:35:48.999Z,66.70
2023-12-11T05:38:18.689Z,67.24
2023-12-11T05:40:47.852Z,67.29
2023-12-11T05:43:16.340Z,67.06
2023-12-11T05:45:44.788Z,66.42
2023-12-11T05:48:13.253Z,67.17
2023-12-11T05:50:41.844Z,67.24
2023-12-11T05:53:10.284Z,67.79
2023-12-11T05:55:40.079Z,67.38
2023-12-11T05:58:08.286Z,67.85
2023-12-11T06:00:36.656Z,67.48
2023-12-11T06:03:04.905Z,67.92
2023-12-11T06:05:33.159Z,68.15
2023-12-11T06:08:01.846Z,68.65
2023-12-11T06:10:30.901Z,67.79
2023-12-11T06:13:00.888Z,67.56
2023-12-11T06:15:29.249Z,67.94
2023-12-11T06:17:57.544Z,67.89
2023-12-11T06:20:25.928Z,66.80
2023-12-11T06:22:54.120Z,67.52
2023-12-11T06:25:22.973Z,67.32
2023-12-11T06:27:52.983Z,67.06
2023-12-11T06:30:23.899Z,67.96
2023-12-11T06:32:52.227Z,68.28
2023-12-11T06:35:20.452Z,68.40
2023-12-11T06:37:49.059Z,67.01
2023-12-11T06:40:17.693Z,68.33
2023-12-11T06:42:47.041Z,68.33
2023-12-11T06:45:16.054Z,68.23
2023-12-11T06:47:45.818Z,67.48
2023-12-11T06:50:14.629Z,68.27
2023-12-11T06:52:43.130Z,66.87
2023-12-11T06:55:11.498Z,67.18
2023-12-11T06:57:40.234Z,66.93
2023-12-11T07:00:11.567Z,67.34
2023-12-11T07:02:41.042Z,67.53
2023-12-11T07:05:11.740Z,67.44
2023-12-11T07:07:40.366Z,67.42
2023-12-11T07:10:09.369Z,67.26
2023-12-11T07:12:42.020Z,66.90
2023-12-11T07:15:11.149Z,66.33
2023-12-11T07:17:39.869Z,67.13
2023-12-11T07:20:13.004Z,67.34
2023-12-11T07:22:41.449Z,66.66
2023-12-11T07:25:10.612Z,67.67
2023-12-11T07:27:39.067Z,67.48
2023-12-11T07:30:08.920Z,67.59
2023-12-11T07:32:37.288Z,67.30
2023-12-11T07:35:09.457Z,67.09
2023-12-11T07:37:42.603Z,67.69
2023-12-11T07:40:12.495Z,67.26
2023-12-11T07:42:41.164Z,67.77
2023-12-11T07:45:10.556Z,67.69
2023-12-11T07:47:39.040Z,67.84
2023-12-11T07:50:08.738Z,67.93
2023-12-11T07:52:38.717Z,67.22
2023-12-11T07:55:08.041Z,68.27
2023-12-11T07:57:37.359Z,68.03
2023-12-11T08:00:06.989Z,67.87
2023-12-11T08:02:37.533Z,68.53
2023-12-11T08:05:06.748Z,67.87
2023-12-11T08:07:35.590Z,67.94
2023-12-11T08:10:06.869Z,67.87
2023-12-11T08:12:35.489Z,67.40
2023-12-11T08:15:04.438Z,67.32
2023-12-11T08:17:33.158Z,67.71
2023-12-11T08:20:01.816Z,67.60
2023-12-11T08:22:30.291Z,67.06
2023-12-11T08:24:58.706Z,67.09
2023-12-11T08:27:29.008Z,67.14
2023-12-11T08:29:57.613Z,67.26
2023-12-11T08:32:26.138Z,67.07
2023-12-11T08:34:54.698Z,67.08
2023-12-11T08:37:23.218Z,66.73
2023-12-11T08:39:51.681Z,66.79
2023-12-11T08:42:20.098Z,66.92
2023-12-11T08:44:50.004Z,66.12
2023-12-11T08:47:18.418Z,66.54
2023-12-11T08:49:47.043Z,66.80
2023-12-11T08:52:15.644Z,67.02
2023-12-11T08:54:44.183Z,67.41
2023-12-11T08:57:12.626Z,67.67
2023-12-11T08:59:41.200Z,67.08
2023-12-11T09:02:11.374Z,66.83
2023-12-11T09:04:39.795Z,66.78
2023-12-11T09:07:11.171Z,67.04
2023-12-11T09:09:40.271Z,67.00
2023-12-11T09:12:19.285Z,66.88
2023-12-11T09:14:59.602Z,66.40
2023-12-11T09:17:30.648Z,67.18
2023-12-11T09:19:59.717Z,67.14
2023-12-11T09:22:28.269Z,67.23
2023-12-11T09:24:56.813Z,66.76
2023-12-11T09:27:25.474Z,66.86
2023-12-11T09:29:53.926Z,66.40
2023-12-11T09:32:22.404Z,66.25
2023-12-11T09:34:53.019Z,66.36
2023-12-11T09:37:21.621Z,66.63
2023-12-11T09:39:50.981Z,66.70
2023-12-11T09:42:19.740Z,66.94
2023-12-11T09:44:50.686Z,67.00
2023-12-11T09:47:24.305Z,66.76
2023-12-11T09:49:54.516Z,67.28
2023-12-11T09:52:23.460Z,67.35
2023-12-11T09:54:51.935Z,67.53
2023-12-11T09:57:20.665Z,67.41
2023-12-11T09:59:51.593Z,67.31
2023-12-11T10:02:20.764Z,67.20
2023-12-11T10:05:09.250Z,67.47
2023-12-11T10:07:38.775Z,67.64
2023-12-11T10:10:23.477Z,67.10
2023-12-11T10:12:52.346Z,67.46
2023-12-11T10:15:25.457Z,67.58
2023-12-11T10:18:04.914Z,67.46
2023-12-11T10:20:36.344Z,66.73
2023-12-11T10:23:16.507Z,66.80
2023-12-11T10:25:47.565Z,67.09
2023-12-11T10:28:18.214Z,66.54
2023-12-11T10:30:55.046Z,66.29
2023-12-11T10:33:25.995Z,66.24
2023-12-11T10:36:10.510Z,66.88
2023-12-11T10:38:38.900Z,66.06
2023-12-11T10:41:08.150Z,65.93
2023-12-11T10:43:56.544Z,65.94
2023-12-11T10:46:33.225Z,66.25
2023-12-11T10:49:02.307Z,66.21
2023-12-11T10:51:35.535Z,66.29
2023-12-11T10:54:03.839Z,66.66
2023-12-11T10:56:32.706Z,66.48
2023-12-11T10:59:01.743Z,66.19
2023-12-11T11:01:30.507Z,65.94
2023-12-11T11:03:59.208Z,66.24
2023-12-11T11:06:30.678Z,66.69
2023-12-11T11:09:06.675Z,66.41
2023-12-11T11:11:39.952Z,66.65
2023-12-11T11:14:35.400Z,66.42
2023-12-11T11:17:03.914Z,67.02
2023-12-11T11:19:32.392Z,66.44
2023-12-11T11:22:31.682Z,66.25
2023-12-11T11:25:38.575Z,66.54
2023-12-11T11:28:08.118Z,67.02
2023-12-11T11:30:50.158Z,66.99
2023-12-11T11:33:18.566Z,66.98
2023-12-11T11:35:51.494Z,67.08
2023-12-11T11:38:21.421Z,67.00
2023-12-11T11:40:52.894Z,67.04
2023-12-11T11:43:21.607Z,66.80
2023-12-11T11:45:57.125Z,66.94
2023-12-11T11:48:43.436Z,66.52
2023-12-11T11:51:12.105Z,66.27
2023-12-11T11:53:42.487Z,66.74
2023-12-11T11:56:13.138Z,66.33
2023-12-11T11:58:41.537Z,66.29
2023-12-11T12:01:10.043Z,66.78
2023-12-11T12:03:45.314Z,66.33
2023-12-11T12:06:17.095Z,66.26
2023-12-11T12:08:45.654Z,66.29
2023-12-11T12:11:16.626Z,66.03
2023-12-11T12:13:45.126Z,65.88
2023-12-11T12:16:13.597Z,66.48
2023-12-11T12:18:51.738Z,66.48
2023-12-11T12:21:20.323Z,66.06
2023-12-11T12:23:48.671Z,66.04
2023-12-11T12:26:18.842Z,66.27
2023-12-11T12:28:47.338Z,66.33
2023-12-11T12:31:15.909Z,66.23
2023-12-11T12:33:44.656Z,66.23
2023-12-11T12:36:13.443Z,66.16
2023-12-11T12:38:42.654Z,65.99
2023-12-11T12:41:13.586Z,65.80
2023-12-11T12:43:43.637Z,65.48
2023-12-11T12:46:12.014Z,66.17
2023-12-11T12:48:40.464Z,66.50
2023-12-11T12:51:10.654Z,66.37
2023-12-11T12:53:48.391Z,65.78
2023-12-11T12:56:19.324Z,66.07
2023-12-11T12:58:55.288Z,66.08
2023-12-11T13:01:23.814Z,65.72
2023-12-11T13:03:52.349Z,65.97
2023-12-11T13:06:27.672Z,65.83
2023-12-11T13:08:56.069Z,66.34
2023-12-11T13:11:24.497Z,66.00
2023-12-11T13:13:57.700Z,66.59
2023-12-11T13:16:26.203Z,66.35
2023-12-11T13:18:54.863Z,66.76
2023-12-11T13:21:23.228Z,66.36
2023-12-11T13:23:51.624Z,66.33
2023-12-11T13:26:20.005Z,66.88
2023-12-11T13:28:48.312Z,67.24
2023-12-11T13:31:18.144Z,67.53
2023-12-11T13:33:46.640Z,67.93
2023-12-11T13:36:19.097Z,67.55
2023-12-11T13:38:47.843Z,67.75
2023-12-11T13:41:16.217Z,68.11
2023-12-11T13:43:44.537Z,67.54
2023-12-11T13:46:13.070Z,67.20
2023-12-11T13:48:43.358Z,67.88
2023-12-11T13:51:12.336Z,67.73
2023-12-11T13:53:41.226Z,67.71
2023-12-11T13:56:10.481Z,67.81
2023-12-11T13:58:38.770Z,67.82
2023-12-11T14:01:07.374Z,67.78
2023-12-11T14:03:35.878Z,67.35
2023-12-11T14:06:06.371Z,67.96
2023-12-11T14:08:34.737Z,67.26
2023-12-11T14:11:03.109Z,67.00
2023-12-11T14:13:31.500Z,67.54
2023-12-11T14:16:00.025Z,68.02
2023-12-11T14:18:31.476Z,67.83
2023-12-11T14:21:03.013Z,67.56
2023-12-11T14:23:33.024Z,67.67
2023-12-11T14:26:01.460Z,67.81
2023-12-11T14:28:29.832Z,68.28
2023-12-11T14:30:58.373Z,68.42
2023-12-11T14:33:26.851Z,67.77
2023-12-11T14:35:55.329Z,67.48
2023-12-11T14:38:23.669Z,67.61
2023-12-11T14:40:53.536Z,67.52
2023-12-11T14:43:22.109Z,67.19
2023-12-11T14:45:50.642Z,67.55
2023-12-11T14:48:19.442Z,67.68
2023-12-11T14:50:48.128Z,67.85
2023-12-11T14:53:16.853Z,67.55
2023-12-11T14:55:45.734Z,67.58
2023-12-11T14:58:15.725Z,67.70
2023-12-11T15:00:44.272Z,67.72
2023-12-11T15:03:12.610Z,67.53
2023-12-11T15:05:40.926Z,68.07
2023-12-11T15:08:09.263Z,68.23
2023-12-11T15:10:38.475Z,67.54
2023-12-11T15:13:07.787Z,68.07
2023-12-11T15:15:38.136Z,67.37
2023-12-11T15:18:08.112Z,67.49
2023-12-11T15:20:36.792Z,67.61
2023-12-11T15:23:06.824Z,67.82
2023-12-11T15:25:35.939Z,67.81
2023-12-11T15:28:05.010Z,68.25
2023-12-11T15:30:33.413Z,68.34
2023-12-11T15:33:03.614Z,68.37
2023-12-11T15:35:32.037Z,68.10
2023-12-11T15:38:00.524Z,68.45
2023-12-11T15:40:29.300Z,68.69
2023-12-11T15:42:57.956Z,68.64
2023-12-11T15:45:26.929Z,68.49
2023-12-11T15:48:01.436Z,68.48
2023-12-11T15:50:33.561Z,68.54
2023-12-11T15:53:02.139Z,68.47
2023-12-11T15:55:30.536Z,68.75
2023-12-11T15:57:59.013Z,69.04
2023-12-11T16:00:27.612Z,69.31
2023-12-11T16:02:56.136Z,69.39
2023-12-11T16:05:24.576Z,69.35
2023-12-11T16:07:55.489Z,69.78
2023-12-11T16:10:23.841Z,69.77
2023-12-11T16:12:52.300Z,68.96
2023-12-11T16:15:21.178Z,69.02
2023-12-11T16:17:49.607Z,69.32
2023-12-11T16:20:18.053Z,69.66
2023-12-11T16:22:46.480Z,69.86
2023-12-11T16:25:16.660Z,70.32
2023-12-11T16:27:45.049Z,69.56
2023-12-11T16:30:14.736Z,69.82
2023-12-11T16:32:43.808Z,70.07
2023-12-11T16:35:12.155Z,69.38
2023-12-11T16:37:40.390Z,69.91
2023-12-11T16:40:10.073Z,69.88
2023-12-11T16:42:39.950Z,70.19
2023-12-11T16:45:11.800Z,70.33
2023-12-11T16:47:45.216Z,71.01
2023-12-11T16:50:13.639Z,70.27
2023-12-11T16:52:42.121Z,70.09
2023-12-11T16:55:10.664Z,70.41
2023-12-11T16:57:40.323Z,70.97
2023-12-11T17:00:11.253Z,70.59
2023-12-11T17:02:39.622Z,69.92
2023-12-11T17:05:08.581Z,70.35
2023-12-11T17:07:36.873Z,71.47
2023-12-11T17:10:05.488Z,70.57
2023-12-11T17:12:34.063Z,70.99
2023-12-11T17:15:04.717Z,71.56
2023-12-11T17:17:33.149Z,72.21
2023-12-11T17:20:01.694Z,71.68
2023-12-11T17:22:30.155Z,71.41
2023-12-11T17:24:59.329Z,70.97
2023-12-11T17:27:27.643Z,70.27
2023-12-11T17:29:57.350Z,70.23
2023-12-11T17:32:28.450Z,70.36
2023-12-11T17:34:57.103Z,70.01
2023-12-11T17:37:25.758Z,70.88
2023-12-11T17:39:54.861Z,70.86
2023-12-11T17:42:23.655Z,71.22
2023-12-11T17:44:51.926Z,71.05
2023-12-11T17:47:20.176Z,71.10
2023-12-11T17:49:50.372Z,71.35
2023-12-11T17:52:18.569Z,71.80
2023-12-11T17:54:50.301Z,71.40
2023-12-11T17:57:18.705Z,71.45
2023-12-11T17:59:46.849Z,71.45
2023-12-11T18:02:15.059Z,71.25
2023-12-11T18:04:43.482Z,71.43
2023-12-11T18:07:13.419Z,71.34
2023-12-11T18:09:41.844Z,71.57
2023-12-11T18:12:10.937Z,71.89
2023-12-11T18:14:39.148Z,71.52
2023-12-11T18:17:07.367Z,71.76
2023-12-11T18:19:35.786Z,71.88
2023-12-11T18:22:06.269Z,71.40
2023-12-11T18:24:37.378Z,71.74
2023-12-11T18:27:05.820Z,72.13
2023-12-11T18:29:34.089Z,71.43
2023-12-11T18:32:02.403Z,72.12
2023-12-11T18:34:39.822Z,72.69
2023-12-11T18:37:16.016Z,72.73
2023-12-11T18:39:45.953Z,72.61
2023-12-11T18:42:14.243Z,72.57
2023-12-11T18:44:44.043Z,72.95
2023-12-11T18:47:12.206Z,72.80
2023-12-11T18:49:42.858Z,72.69
2023-12-11T18:52:13.472Z,72.61
2023-12-11T18:54:41.734Z,72.99
2023-12-11T18:57:13.307Z,72.55
2023-12-11T18:59:41.496Z,72.45
2023-12-11T19:02:09.805Z,71.95
2023-12-11T19:04:38.205Z,72.09
2023-12-11T19:07:07.230Z,72.22
2023-12-11T19:09:35.405Z,72.24
2023-12-11T19:12:04.184Z,71.84
2023-12-11T19:14:33.850Z,72.22
2023-12-11T19:17:02.363Z,72.40
2023-12-11T19:19:30.743Z,72.51
2023-12-11T19:21:59.989Z,72.38
2023-12-11T19:24:30.019Z,72.45
2023-12-11T19:26:58.377Z,72.07
2023-12-11T19:29:26.692Z,72.23
2023-12-11T19:31:56.500Z,72.15
2023-12-11T19:34:24.998Z,72.09
2023-12-11T19:36:53.393Z,72.14
2023-12-11T19:39:21.582Z,72.10
2023-12-11T19:41:49.936Z,71.79
2023-12-11T19:44:18.582Z,72.55
2023-12-11T19:46:47.233Z,71.90
2023-12-11T19:49:18.235Z,71.90
2023-12-11T19:51:46.947Z,71.67
2023-12-11T19:54:15.571Z,72.04
2023-12-11T19:56:44.739Z,71.68
2023-12-11T19:59:13.930Z,71.73
2023-12-11T20:01:42.234Z,72.68
2023-12-11T20:04:10.728Z,71.91
2023-12-11T20:06:41.176Z,72.49
2023-12-11T20:09:09.404Z,72.40
2023-12-11T20:11:37.655Z,72.05
2023-12-11T20:14:06.012Z,72.48
2023-12-11T20:16:34.289Z,72.18
2023-12-11T20:19:02.726Z,72.32
2023-12-11T20:21:31.174Z,72.26
2023-12-11T20:24:00.987Z,71.97
2023-12-11T20:26:29.223Z,72.02
2023-12-11T20:28:57.409Z,72.24
2023-12-11T20:31:26.674Z,72.65
2023-12-11T20:33:54.977Z,72.60
2023-12-11T20:36:23.458Z,73.02
2023-12-11T20:38:51.725Z,72.89
2023-12-11T20:41:22.747Z,72.73
2023-12-11T20:43:51.772Z,72.30
2023-12-11T20:46:24.963Z,72.55
2023-12-11T20:48:54.691Z,72.19
2023-12-11T20:51:24.172Z,72.34
2023-12-11T20:53:53.374Z,72.83
2023-12-11T20:56:24.143Z,72.64
2023-12-11T20:58:53.210Z,72.89
2023-12-11T21:01:29.736Z,72.60
2023-12-11T21:03:59.094Z,72.13
2023-12-11T21:06:28.150Z,72.34
2023-12-11T21:08:57.284Z,72.48
2023-12-11T21:11:27.468Z,72.78
2023-12-11T21:13:55.880Z,72.53
2023-12-11T21:16:24.310Z,73.06
2023-12-11T21:18:53.264Z,73.08
2023-12-11T21:21:22.850Z,72.62
2023-12-11T21:23:51.981Z,72.88
2023-12-11T21:26:22.389Z,72.39
2023-12-11T21:28:53.465Z,72.51
2023-12-11T21:31:24.030Z,72.13
2023-12-11T21:33:53.481Z,71.98
2023-12-11T21:36:22.643Z,71.96
2023-12-11T21:38:51.326Z,72.14
2023-12-11T21:41:19.808Z,71.51
2023-12-11T21:44:01.649Z,71.64
2023-12-11T21:46:30.074Z,71.69
2023-12-11T21:49:02.588Z,72.18
2023-12-11T21:51:33.930Z,72.46
2023-12-11T21:54:02.536Z,73.55
2023-12-11T21:56:31.714Z,73.49
2023-12-11T21:59:01.497Z,73.44
2023-12-11T22:01:30.235Z,73.61
2023-12-11T22:03:58.830Z,72.85
2023-12-11T22:06:28.620Z,73.13
2023-12-11T22:08:57.010Z,72.72
2023-12-11T22:11:25.514Z,73.24
2023-12-11T22:13:54.080Z,73.29
2023-12-11T22:16:24.076Z,73.02
2023-12-11T22:18:52.594Z,73.32
2023-12-11T22:21:24.680Z,73.68
2023-12-11T22:23:54.064Z,73.37
2023-12-11T22:26:22.779Z,73.34
2023-12-11T22:28:51.359Z,73.35
2023-12-11T22:31:31.357Z,73.54
2023-12-11T22:34:00.039Z,73.31
2023-12-11T22:36:29.589Z,73.29
2023-12-11T22:38:58.210Z,73.43
2023-12-11T22:41:27.094Z,73.79
2023-12-11T22:43:55.710Z,73.90
2023-12-11T22:46:24.942Z,74.00
2023-12-11T22:48:55.186Z,74.09
2023-12-11T22:51:24.292Z,74.18
2023-12-11T22:53:53.074Z,74.17
2023-12-11T22:56:21.606Z,74.22
2023-12-11T22:58:52.866Z,73.99
2023-12-11T23:01:24.526Z,73.86
2023-12-11T23:03:57.691Z,74.00
2023-12-11T23:06:28.500Z,74.10
2023-12-11T23:08:57.691Z,74.01
2023-12-11T23:11:30.872Z,73.91
2023-12-11T23:13:59.764Z,74.03
2023-12-11T23:16:35.804Z,74.19
2023-12-11T23:19:19.615Z,73.84
2023-12-11T23:21:52.327Z,73.46
2023-12-11T23:24:23.909Z,73.75
2023-12-11T23:26:58.428Z,73.74
2023-12-11T23:29:30.487Z,73.21
2023-12-11T23:32:07.540Z,73.42
2023-12-11T23:34:45.033Z,72.97
2023-12-11T23:37:27.269Z,72.84
2023-12-11T23:39:56.516Z,73.06
2023-12-11T23:42:29.013Z,72.59
2023-12-11T23:45:06.071Z,72.70
2023-12-11T23:47:36.803Z,73.37
2023-12-11T23:50:09.166Z,73.08
2023-12-11T23:52:40.307Z,73.78
2023-12-11T23:55:14.282Z,73.55
2023-12-11T23:57:46.081Z,74.04
